createdAt,value
2022-11-16T00:02:16.550Z,12.74
2022-11-16T00:04:42.986Z,12.76
2022-11-16T00:07:09.951Z,12.77
2022-11-16T00:09:36.411Z,12.74
2022-11-16T00:12:06.331Z,12.76
2022-11-16T00:14:35.291Z,12.78
2022-11-16T00:17:02.432Z,12.77
2022-11-16T00:19:29.239Z,12.78
2022-11-16T00:21:55.868Z,12.76
2022-11-16T00:24:23.410Z,12.79
2022-11-16T00:26:50.437Z,12.76
2022-11-16T00:29:19.482Z,12.79
2022-11-16T00:31:46.381Z,12.78
2022-11-16T00:34:13.630Z,12.85
2022-11-16T00:36:39.993Z,12.86
2022-11-16T00:39:06.397Z,12.86
2022-11-16T00:41:32.979Z,12.86
2022-11-16T00:43:59.316Z,12.85
2022-11-16T00:46:25.781Z,12.86
2022-11-16T00:48:52.214Z,12.86
2022-11-16T00:51:18.697Z,12.86
2022-11-16T00:53:45.014Z,12.84
2022-11-16T00:56:11.469Z,12.83
2022-11-16T00:58:37.837Z,12.82
2022-11-16T01:01:06.357Z,12.81
2022-11-16T01:03:34.233Z,12.81
2022-11-16T01:06:06.002Z,12.83
2022-11-16T01:08:35.074Z,12.83
2022-11-16T01:11:21.716Z,12.85
2022-11-16T01:13:49.156Z,12.85
2022-11-16T01:16:16.615Z,12.86
2022-11-16T01:18:43.880Z,12.86
2022-11-16T01:21:10.437Z,12.84
2022-11-16T01:23:36.823Z,12.83
2022-11-16T01:26:09.124Z,12.83
2022-11-16T01:28:35.900Z,12.84
2022-11-16T01:31:02.704Z,12.85
2022-11-16T01:33:29.683Z,12.86
2022-11-16T01:35:56.032Z,12.86
2022-11-16T01:38:25.914Z,12.88
2022-11-16T01:40:54.893Z,12.88
2022-11-16T01:43:26.989Z,12.89
2022-11-16T01:45:53.340Z,12.93
2022-11-16T01:48:27.596Z,12.90
2022-11-16T01:50:55.038Z,12.90
2022-11-16T01:53:24.000Z,12.90
2022-11-16T01:55:50.705Z,12.88
2022-11-16T01:58:23.218Z,12.89
2022-11-16T02:00:50.162Z,12.90
2022-11-16T02:03:20.690Z,12.89
2022-11-16T02:06:22.816Z,12.94
2022-11-16T02:09:39.120Z,12.92
2022-11-16T02:12:26.958Z,12.90
2022-11-16T02:15:23.266Z,12.89
2022-11-16T02:17:55.644Z,12.93
2022-11-16T02:20:46.674Z,12.97
2022-11-16T02:23:43.290Z,13.02
2022-11-16T02:26:28.141Z,13.05
2022-11-16T02:29:18.961Z,13.07
2022-11-16T02:32:04.729Z,13.10
2022-11-16T02:34:39.194Z,13.11
2022-11-16T02:37:09.650Z,13.09
2022-11-16T02:39:41.188Z,13.10
2022-11-16T02:42:15.476Z,13.10
2022-11-16T02:44:47.365Z,13.12
2022-11-16T02:47:20.857Z,13.13
2022-11-16T02:49:52.754Z,13.16
2022-11-16T02:52:21.451Z,13.14
2022-11-16T02:54:47.780Z,13.18
2022-11-16T02:57:35.279Z,13.18
2022-11-16T03:00:02.664Z,13.18
2022-11-16T03:02:55.896Z,13.18
2022-11-16T03:05:35.248Z,13.16
2022-11-16T03:08:38.564Z,13.16
2022-11-16T03:11:26.139Z,13.11
2022-11-16T03:13:57.292Z,13.09
2022-11-16T03:16:30.006Z,13.12
2022-11-16T03:18:58.873Z,13.11
2022-11-16T03:21:43.705Z,13.09
2022-11-16T03:24:10.792Z,13.08
2022-11-16T03:26:49.276Z,13.13
2022-11-16T03:29:29.226Z,13.10
2022-11-16T03:32:03.635Z,13.11
2022-11-16T03:34:35.869Z,13.12
2022-11-16T03:37:04.017Z,13.09
2022-11-16T03:39:35.627Z,13.12
2022-11-16T03:42:06.668Z,13.12
2022-11-16T03:44:33.586Z,13.11
2022-11-16T03:47:01.598Z,13.05
2022-11-16T03:49:31.310Z,13.05
2022-11-16T03:52:01.308Z,13.02
2022-11-16T03:54:27.649Z,13.02
2022-11-16T03:56:53.982Z,13.04
2022-11-16T03:59:20.326Z,13.03
2022-11-16T04:01:46.782Z,13.01
2022-11-16T04:04:35.436Z,13.01
2022-11-16T04:07:22.167Z,13.00
2022-11-16T04:10:07.097Z,12.99
2022-11-16T04:12:52.174Z,12.98
2022-11-16T04:15:36.974Z,12.95
2022-11-16T04:18:22.558Z,12.94
2022-11-16T04:21:07.949Z,12.87
2022-11-16T04:23:52.633Z,12.94
2022-11-16T04:26:18.967Z,12.95
2022-11-16T04:28:45.459Z,12.96
2022-11-16T04:31:30.510Z,12.96
2022-11-16T04:34:15.290Z,12.97
2022-11-16T04:37:00.227Z,12.97
2022-11-16T04:39:26.592Z,12.97
2022-11-16T04:42:11.522Z,12.97
2022-11-16T04:45:00.446Z,12.92
2022-11-16T04:47:26.762Z,12.87
2022-11-16T04:49:53.069Z,12.85
2022-11-16T04:52:19.430Z,12.85
2022-11-16T04:54:45.804Z,12.86
2022-11-16T04:57:12.141Z,12.85
2022-11-16T04:59:38.557Z,12.84
2022-11-16T05:02:10.857Z,12.84
2022-11-16T05:04:39.634Z,12.81
2022-11-16T05:07:10.919Z,12.84
2022-11-16T05:09:44.731Z,12.83
2022-11-16T05:12:15.487Z,12.81
2022-11-16T05:14:42.766Z,12.81
2022-11-16T05:17:09.884Z,12.81
2022-11-16T05:19:54.843Z,12.80
2022-11-16T05:22:21.412Z,12.80
2022-11-16T05:24:47.757Z,12.78
2022-11-16T05:27:16.234Z,12.75
2022-11-16T05:29:42.659Z,12.76
2022-11-16T05:32:11.169Z,12.75
2022-11-16T05:34:37.873Z,12.75
2022-11-16T05:37:04.385Z,12.70
2022-11-16T05:39:30.731Z,12.72
2022-11-16T05:41:57.505Z,12.74
2022-11-16T05:44:24.535Z,12.72
2022-11-16T05:46:51.145Z,12.65
2022-11-16T05:49:17.903Z,12.69
2022-11-16T05:51:46.147Z,12.64
2022-11-16T05:54:18.597Z,12.57
2022-11-16T05:56:45.849Z,12.51
2022-11-16T05:59:16.598Z,12.46
2022-11-16T06:01:44.267Z,12.42
2022-11-16T06:04:11.453Z,12.38
2022-11-16T06:06:38.420Z,12.37
2022-11-16T06:09:05.147Z,12.29
2022-11-16T06:11:35.779Z,12.34
2022-11-16T06:14:03.436Z,12.29
2022-11-16T06:16:29.837Z,12.22
2022-11-16T06:18:56.312Z,12.24
2022-11-16T06:21:25.363Z,12.20
2022-11-16T06:23:57.463Z,12.20
2022-11-16T06:26:23.701Z,12.18
2022-11-16T06:28:50.294Z,12.12
2022-11-16T06:31:16.864Z,12.12
2022-11-16T06:33:43.353Z,12.11
2022-11-16T06:36:09.716Z,12.09
2022-11-16T06:38:36.358Z,12.07
2022-11-16T06:41:03.194Z,12.05
2022-11-16T06:43:29.662Z,12.02
2022-11-16T06:45:57.801Z,11.98
2022-11-16T06:48:24.909Z,11.96
2022-11-16T06:50:52.127Z,11.92
2022-11-16T06:53:19.112Z,11.94
2022-11-16T06:55:47.750Z,11.89
2022-11-16T06:58:14.565Z,11.87
2022-11-16T07:00:41.084Z,11.87
2022-11-16T07:03:07.475Z,11.79
2022-11-16T07:05:36.036Z,11.80
2022-11-16T07:08:02.405Z,11.77
2022-11-16T07:10:28.740Z,11.78
2022-11-16T07:12:55.077Z,11.76
2022-11-16T07:15:21.850Z,11.71
2022-11-16T07:17:48.186Z,11.67
2022-11-16T07:20:14.812Z,11.64
2022-11-16T07:22:41.165Z,11.59
2022-11-16T07:25:08.221Z,11.56
2022-11-16T07:27:34.676Z,11.55
2022-11-16T07:30:02.083Z,11.54
2022-11-16T07:32:31.000Z,11.54
2022-11-16T07:34:59.376Z,11.54
2022-11-16T07:37:26.012Z,11.55
2022-11-16T07:39:52.853Z,11.54
2022-11-16T07:42:19.278Z,11.53
2022-11-16T07:44:45.705Z,11.54
2022-11-16T07:47:12.093Z,11.53
2022-11-16T07:49:38.603Z,11.54
2022-11-16T07:52:05.161Z,11.68
2022-11-16T07:54:31.478Z,11.89
2022-11-16T07:56:57.829Z,11.92
2022-11-16T07:59:24.236Z,11.88
2022-11-16T08:01:50.653Z,11.85
2022-11-16T08:04:19.771Z,11.80
2022-11-16T08:06:46.831Z,11.77
2022-11-16T08:09:13.978Z,11.76
2022-11-16T08:11:40.394Z,11.74
2022-11-16T08:14:06.748Z,11.78
2022-11-16T08:16:33.300Z,11.80
2022-11-16T08:19:01.139Z,11.78
2022-11-16T08:21:27.571Z,11.72
2022-11-16T08:23:58.419Z,11.68
2022-11-16T08:26:25.670Z,11.63
2022-11-16T08:28:53.690Z,11.64
2022-11-16T08:31:24.037Z,11.68
2022-11-16T08:33:51.788Z,11.70
2022-11-16T08:36:18.873Z,11.70
2022-11-16T08:38:47.232Z,11.72
2022-11-16T08:41:14.022Z,11.74
2022-11-16T08:43:41.530Z,11.73
2022-11-16T08:46:09.493Z,11.72
2022-11-16T08:48:37.589Z,11.72
2022-11-16T08:51:22.000Z,11.80
2022-11-16T08:53:49.373Z,11.89
2022-11-16T08:56:18.385Z,11.94
2022-11-16T08:58:46.978Z,12.08
2022-11-16T09:01:20.128Z,12.16
2022-11-16T09:03:47.242Z,12.23
2022-11-16T09:06:14.311Z,12.37
2022-11-16T09:08:43.000Z,12.61
2022-11-16T09:11:12.746Z,12.98
2022-11-16T09:13:39.754Z,13.36
2022-11-16T09:16:06.279Z,13.70
2022-11-16T09:18:36.927Z,14.07
2022-11-16T09:21:03.927Z,14.30
2022-11-16T09:23:30.314Z,14.31
2022-11-16T09:26:01.429Z,14.25
2022-11-16T09:28:28.029Z,14.32
2022-11-16T09:31:02.467Z,14.35
2022-11-16T09:33:31.168Z,14.27
2022-11-16T09:36:06.991Z,14.24
2022-11-16T09:42:08.240Z,13.97
2022-11-16T09:44:40.241Z,13.76
2022-11-16T09:47:11.445Z,13.62
2022-11-16T09:49:47.721Z,13.41
2022-11-16T09:52:28.352Z,13.33
2022-11-16T09:54:57.935Z,13.36
2022-11-16T09:57:32.518Z,13.36
2022-11-16T10:00:04.368Z,13.27
2022-11-16T10:02:41.837Z,13.27
2022-11-16T10:05:21.672Z,13.40
2022-11-16T10:08:00.100Z,13.46
2022-11-16T10:10:36.688Z,13.52
2022-11-16T10:13:20.755Z,13.68
2022-11-16T10:16:14.428Z,14.22
2022-11-16T10:19:00.385Z,15.03
2022-11-16T10:21:55.227Z,15.68
2022-11-16T10:24:44.689Z,16.08
2022-11-16T10:27:53.051Z,16.68
2022-11-16T10:30:21.742Z,17.17
2022-11-16T10:33:13.329Z,17.57
2022-11-16T10:36:10.854Z,17.93
2022-11-16T10:38:37.694Z,18.50
2022-11-16T10:41:14.240Z,18.92
2022-11-16T10:43:43.321Z,18.81
2022-11-16T10:46:21.337Z,18.89
2022-11-16T10:48:47.591Z,18.97
2022-11-16T10:51:13.977Z,19.11
2022-11-16T10:53:43.730Z,19.46
2022-11-16T10:56:21.831Z,19.80
2022-11-16T10:58:56.520Z,19.97
2022-11-16T11:01:53.263Z,20.11
2022-11-16T11:04:24.308Z,20.14
2022-11-16T11:06:58.326Z,20.34
2022-11-16T11:09:38.495Z,20.27
2022-11-16T11:12:34.292Z,20.11
2022-11-16T11:15:25.839Z,20.12
2022-11-16T11:18:14.501Z,20.13
2022-11-16T11:20:45.014Z,20.11
2022-11-16T11:23:24.770Z,20.12
2022-11-16T11:25:59.352Z,20.07
2022-11-16T11:28:27.679Z,20.17
2022-11-16T11:31:08.073Z,20.34
2022-11-16T11:33:42.631Z,20.51
2022-11-16T11:36:18.561Z,20.72
2022-11-16T11:39:06.329Z,20.85
2022-11-16T11:41:36.901Z,20.85
2022-11-16T11:44:12.501Z,21.12
2022-11-16T11:49:38.257Z,20.83
2022-11-16T11:52:33.967Z,20.24
2022-11-16T11:55:05.874Z,19.64
2022-11-16T11:57:36.604Z,19.16
2022-11-16T12:00:03.650Z,18.82
2022-11-16T12:02:46.678Z,18.35
2022-11-16T12:05:45.584Z,17.91
2022-11-16T12:08:51.161Z,17.49
2022-11-16T12:11:50.201Z,17.02
2022-11-16T12:14:32.523Z,16.49
2022-11-16T12:17:09.962Z,16.07
2022-11-16T12:20:19.115Z,15.82
2022-11-16T12:23:17.943Z,15.64
2022-11-16T12:25:57.791Z,15.35
2022-11-16T12:28:46.024Z,15.28
2022-11-16T12:31:28.412Z,15.11
2022-11-16T12:34:37.882Z,14.94
2022-11-16T12:37:16.143Z,15.06
2022-11-16T12:40:14.076Z,15.14
2022-11-16T12:42:58.408Z,15.59
2022-11-16T12:45:37.523Z,16.19
2022-11-16T12:48:12.986Z,16.39
2022-11-16T12:50:50.315Z,16.39
2022-11-16T12:53:41.290Z,16.61
2022-11-16T12:56:28.900Z,16.88
2022-11-16T12:59:16.515Z,17.06
2022-11-16T13:02:12.428Z,17.21
2022-11-16T13:04:46.045Z,17.36
2022-11-16T13:07:34.818Z,17.59
2022-11-16T13:10:07.092Z,17.66
2022-11-16T13:12:36.259Z,17.65
2022-11-16T13:15:03.315Z,17.46
2022-11-16T13:17:36.939Z,17.42
2022-11-16T13:20:14.925Z,17.52
2022-11-16T13:22:50.775Z,17.66
2022-11-16T13:25:33.739Z,17.59
2022-11-16T13:28:20.319Z,17.51
2022-11-16T13:31:02.055Z,17.19
2022-11-16T13:33:34.131Z,17.06
2022-11-16T13:36:32.297Z,16.86
2022-11-16T13:38:58.693Z,16.65
2022-11-16T13:41:35.529Z,16.46
2022-11-16T13:44:04.351Z,16.13
2022-11-16T13:46:56.142Z,15.86
2022-11-16T13:49:48.011Z,15.58
2022-11-16T13:52:23.863Z,15.45
2022-11-16T13:54:55.375Z,15.22
2022-11-16T13:57:31.141Z,15.17
2022-11-16T14:00:00.280Z,15.15
2022-11-16T14:02:34.061Z,15.03
2022-11-16T14:05:15.440Z,14.97
2022-11-16T14:07:52.059Z,14.95
2022-11-16T14:10:35.986Z,14.92
2022-11-16T14:13:04.378Z,14.88
2022-11-16T14:15:39.728Z,14.81
2022-11-16T14:18:12.047Z,14.82
2022-11-16T14:20:52.165Z,14.79
2022-11-16T14:23:44.329Z,14.69
2022-11-16T14:26:44.711Z,14.61
2022-11-16T14:29:25.916Z,14.54
2022-11-16T14:31:57.473Z,14.39
2022-11-16T14:34:30.148Z,14.24
2022-11-16T14:36:58.210Z,14.22
2022-11-16T14:39:38.726Z,14.24
2022-11-16T14:42:27.279Z,14.14
2022-11-16T14:45:07.201Z,14.06
2022-11-16T14:47:37.024Z,14.06
2022-11-16T14:50:03.763Z,14.01
2022-11-16T14:52:44.922Z,13.99
2022-11-16T14:55:19.749Z,13.97
2022-11-16T14:57:46.579Z,13.86
2022-11-16T15:00:25.660Z,13.83
2022-11-16T15:02:57.791Z,13.81
2022-11-16T15:05:33.824Z,13.76
2022-11-16T15:08:01.309Z,13.76
2022-11-16T15:10:29.014Z,13.73
2022-11-16T15:12:57.537Z,13.69
2022-11-16T15:15:27.513Z,13.68
2022-11-16T15:18:00.000Z,13.62
2022-11-16T15:20:29.057Z,13.56
2022-11-16T15:22:59.532Z,13.45
2022-11-16T15:25:31.905Z,13.43
2022-11-16T15:28:00.669Z,13.38
2022-11-16T15:30:34.129Z,13.35
2022-11-16T15:33:15.043Z,13.30
2022-11-16T15:35:41.411Z,13.31
2022-11-16T15:38:21.449Z,13.31
2022-11-16T15:40:56.554Z,13.32
2022-11-16T15:43:29.660Z,13.32
2022-11-16T15:45:57.047Z,13.33
2022-11-16T15:48:25.258Z,13.28
2022-11-16T15:51:08.480Z,13.24
2022-11-16T15:53:46.123Z,13.12
2022-11-16T15:56:27.474Z,13.08
2022-11-16T15:59:09.331Z,13.05
2022-11-16T16:01:42.724Z,13.02
2022-11-16T16:04:17.996Z,12.96
2022-11-16T16:06:51.839Z,12.90
2022-11-16T16:09:28.744Z,12.87
2022-11-16T16:12:17.043Z,12.77
2022-11-16T16:14:43.887Z,12.69
2022-11-16T16:17:12.246Z,12.67
2022-11-16T16:19:44.189Z,12.63
2022-11-16T16:22:32.480Z,12.53
2022-11-16T16:24:59.322Z,12.51
2022-11-16T16:27:30.142Z,12.47
2022-11-16T16:29:58.906Z,12.46
2022-11-16T16:32:26.715Z,12.35
2022-11-16T16:34:55.091Z,12.30
2022-11-16T16:37:22.330Z,12.26
2022-11-16T16:39:48.877Z,12.25
2022-11-16T16:42:17.043Z,12.24
2022-11-16T16:44:45.262Z,12.25
2022-11-16T16:47:12.232Z,12.22
2022-11-16T16:49:38.586Z,12.17
2022-11-16T16:52:06.203Z,12.16
2022-11-16T16:54:32.582Z,12.18
2022-11-16T16:57:01.303Z,12.13
2022-11-16T16:59:29.851Z,12.10
2022-11-16T17:01:57.528Z,12.06
2022-11-16T17:04:24.825Z,12.01
2022-11-16T17:06:52.301Z,11.97
2022-11-16T17:09:18.922Z,11.93
2022-11-16T17:11:46.892Z,11.91
2022-11-16T17:14:13.277Z,11.88
2022-11-16T17:16:39.651Z,11.91
2022-11-16T17:19:06.056Z,11.87
2022-11-16T17:21:32.512Z,11.81
2022-11-16T17:23:58.907Z,11.79
2022-11-16T17:26:29.151Z,11.77
2022-11-16T17:28:59.005Z,11.71
2022-11-16T17:31:26.024Z,11.69
2022-11-16T17:33:52.547Z,11.64
2022-11-16T17:36:20.037Z,11.61
2022-11-16T17:38:46.754Z,11.60
2022-11-16T17:41:15.695Z,11.57
2022-11-16T17:43:43.921Z,11.60
2022-11-16T17:46:13.412Z,11.60
2022-11-16T17:48:42.183Z,11.58
2022-11-16T17:51:09.707Z,11.55
2022-11-16T17:53:36.817Z,11.54
2022-11-16T17:56:04.301Z,11.45
2022-11-16T17:58:34.471Z,11.44
2022-11-16T18:01:00.983Z,11.45
2022-11-16T18:03:28.391Z,11.42
2022-11-16T18:06:27.139Z,11.38
2022-11-16T18:08:53.905Z,11.30
2022-11-16T18:11:28.525Z,11.28
2022-11-16T18:13:57.228Z,11.27
2022-11-16T18:16:25.901Z,11.23
2022-11-16T18:19:02.515Z,11.21
2022-11-16T18:21:29.717Z,11.15
2022-11-16T18:23:58.879Z,11.19
2022-11-16T18:26:25.246Z,11.21
2022-11-16T18:28:52.771Z,11.26
2022-11-16T18:31:21.399Z,11.33
2022-11-16T18:33:49.188Z,11.32
2022-11-16T18:36:16.243Z,11.24
2022-11-16T18:38:42.719Z,11.37
2022-11-16T18:41:11.762Z,11.40
2022-11-16T18:43:42.384Z,11.36
2022-11-16T18:46:08.766Z,11.39
2022-11-16T18:48:35.093Z,11.41
2022-11-16T18:51:03.534Z,11.40
2022-11-16T18:53:31.770Z,11.36
2022-11-16T18:55:58.555Z,11.35
2022-11-16T19:01:18.100Z,11.18
2022-11-16T19:03:44.796Z,11.29
2022-11-16T19:06:11.806Z,11.24
2022-11-16T19:08:39.542Z,11.24
2022-11-16T19:11:13.102Z,11.23
2022-11-16T19:13:40.743Z,11.20
2022-11-16T19:16:09.136Z,11.16
2022-11-16T19:18:38.444Z,11.14
2022-11-16T19:21:10.639Z,11.13
2022-11-16T19:23:41.320Z,11.13
2022-11-16T19:26:07.794Z,11.05
2022-11-16T19:28:40.887Z,11.09
2022-11-16T19:31:12.588Z,11.11
2022-11-16T19:33:39.264Z,11.13
2022-11-16T19:36:17.414Z,11.14
2022-11-16T19:38:47.918Z,11.15
2022-11-16T19:41:16.493Z,11.14
2022-11-16T19:43:43.365Z,11.12
2022-11-16T19:46:12.693Z,11.10
2022-11-16T19:48:39.593Z,11.07
2022-11-16T19:51:06.999Z,11.08
2022-11-16T19:53:34.132Z,11.09
2022-11-16T19:56:00.913Z,11.08
2022-11-16T19:58:27.460Z,11.06
2022-11-16T20:01:01.305Z,11.05
2022-11-16T20:03:27.944Z,11.06
2022-11-16T20:06:04.154Z,11.01
2022-11-16T20:08:31.594Z,11.03
2022-11-16T20:10:57.922Z,11.01
2022-11-16T20:13:24.249Z,11.04
2022-11-16T20:15:51.002Z,11.05
2022-11-16T20:18:18.561Z,11.01
2022-11-16T20:20:45.111Z,11.00
2022-11-16T20:23:19.130Z,11.00
2022-11-16T20:25:45.682Z,11.05
2022-11-16T20:28:12.046Z,11.07
2022-11-16T20:30:38.390Z,11.06
2022-11-16T20:33:04.764Z,11.09
2022-11-16T20:35:32.996Z,11.08
2022-11-16T20:37:59.335Z,11.09
2022-11-16T20:40:25.693Z,11.09
2022-11-16T20:42:52.075Z,11.10
2022-11-16T20:45:18.407Z,11.09
2022-11-16T20:47:44.706Z,11.04
2022-11-16T20:50:11.100Z,11.09
2022-11-16T20:52:42.380Z,11.09
2022-11-16T20:55:16.037Z,11.10
2022-11-16T20:57:42.384Z,11.08
2022-11-16T21:00:09.345Z,11.06
2022-11-16T21:02:35.735Z,11.12
2022-11-16T21:05:02.386Z,11.14
2022-11-16T21:07:28.823Z,11.16
2022-11-16T21:10:27.328Z,11.13
2022-11-16T21:13:12.194Z,11.17
2022-11-16T21:15:38.513Z,11.19
2022-11-16T21:18:04.993Z,11.19
2022-11-16T21:20:31.438Z,11.23
2022-11-16T21:22:57.750Z,11.21
2022-11-16T21:25:24.156Z,11.19
2022-11-16T21:27:50.557Z,11.23
2022-11-16T21:30:17.073Z,11.21
2022-11-16T21:32:43.452Z,11.22
2022-11-16T21:35:09.843Z,11.22
2022-11-16T21:37:36.228Z,11.21
2022-11-16T21:40:03.335Z,11.21
2022-11-16T21:42:29.702Z,11.21
2022-11-16T21:44:56.035Z,11.20
2022-11-16T21:47:22.420Z,11.22
2022-11-16T21:50:16.755Z,11.20
2022-11-16T21:52:35.064Z,11.21
2022-11-16T21:55:01.569Z,11.20
2022-11-16T21:57:27.998Z,11.18
2022-11-16T21:59:54.381Z,11.20
2022-11-16T22:02:20.711Z,11.20
2022-11-16T22:05:05.416Z,11.22
2022-11-16T22:07:36.626Z,11.20
2022-11-16T22:10:08.652Z,11.21
2022-11-16T22:12:36.381Z,11.15
2022-11-16T22:15:04.322Z,11.22
2022-11-16T22:17:31.022Z,11.23
2022-11-16T22:19:57.368Z,11.20
2022-11-16T22:22:24.539Z,11.21
2022-11-16T22:24:51.159Z,11.20
2022-11-16T22:27:18.513Z,11.20
2022-11-16T22:29:44.835Z,11.11
2022-11-16T22:32:11.151Z,11.17
2022-11-16T22:34:37.564Z,11.07
2022-11-16T22:37:03.926Z,11.15
2022-11-16T22:39:30.374Z,11.16
2022-11-16T22:41:56.822Z,11.14
2022-11-16T22:44:23.181Z,11.14
2022-11-16T22:46:49.499Z,11.12
2022-11-16T22:49:15.858Z,11.08
2022-11-16T22:51:42.271Z,11.07
2022-11-16T22:54:11.316Z,11.07
2022-11-16T22:56:38.516Z,11.05
2022-11-16T22:59:07.756Z,11.05
2022-11-16T23:01:34.088Z,11.05
2022-11-16T23:04:00.540Z,11.03
2022-11-16T23:06:27.041Z,11.01
2022-11-16T23:08:53.720Z,11.00
2022-11-16T23:11:43.758Z,10.99
2022-11-16T23:14:31.212Z,10.96
2022-11-16T23:16:57.585Z,10.96
2022-11-16T23:19:42.779Z,10.92
2022-11-16T23:22:33.146Z,10.80
2022-11-16T23:25:18.299Z,10.85
2022-11-16T23:28:07.691Z,10.83
2022-11-16T23:30:35.031Z,10.83
2022-11-16T23:33:02.223Z,10.80
2022-11-16T23:35:28.590Z,10.79
2022-11-16T23:38:01.913Z,10.78
2022-11-16T23:40:31.108Z,10.78
2022-11-16T23:43:16.704Z,10.79
2022-11-16T23:45:44.394Z,10.79
2022-11-16T23:48:15.282Z,10.79
2022-11-16T23:50:42.239Z,10.74
2022-11-16T23:53:10.178Z,10.70
2022-11-16T23:55:38.322Z,10.67
2022-11-16T23:58:05.486Z,10.68
